Columbia (COU/KCOU)

Map

Destinations

Information

Location
Columbia, Missouri
Local Time
05:27 / 5:27 am
GMT Time
10:27 / 10:27 am
Gates
Unassigned
No FAA reported delays
METAR KCOU 210954Z AUTO 19003KT 10SM CLR 25/23 A2999 RMK AO2 SLP143 T02500228
TAF KCOU 210520Z 2106/2206 VRB03KT P6SM SKC FM211600 22005KT P6SM FEW050